METAR v bližini

 

LIPQ - Ronchi Legionari, Italy
Oddaljenost od postaje: JZ 35km
Podatki zajeti: 18/08/2019 17:50
Jasno
Jasno
 Veter iz smeri JJZ
Veter: JJZ 9 km/h
Temperatura: 29°C
Toplotni indeks: 29°C
Temp. rosišča: 17°C
Vlažnost: 48%
Tlak: 1015 hPa
Stanje: Jasno
Vidljivost: večja od 10 km
2019/08/18 15:50 LIPQ 181550Z 21005KT 180V240 CAVOK 29/17 Q1015
LIVT - Trieste, Italy
Oddaljenost od postaje: J 49km
Podatki zajeti: 18/08/2019 17:55
Jasno
Jasno
 Veter iz smeri Z
Veter: Z 2 km/h
Temperatura: 28°C
Toplotni indeks: 30°C
Temp. rosišča: 21°C
Vlažnost: 66%
Tlak: 1015 hPa
Stanje: Jasno
Vidljivost: večja od 10 km
2019/08/18 15:55 LIVT 181555Z 28001KT CAVOK 28/21 Q1015 RMK SKC QUK 1 QUL 0 VIS MAR 20 KM VIS MIN 9999
 
LIVO - Tarvisio, Italy
Oddaljenost od postaje: SSZ 49km
Podatki zajeti: 18/08/2019 17:55
Jasno
Jasno
 Veter iz smeri Z
Veter: Z 9 km/h
Temperatura: 24°C
Temp. rosišča: 16°C
Vlažnost: 61%
Tlak: 1016 hPa
Stanje: Jasno
Vidljivost: večja od 10 km
2019/08/18 15:55 LIVO 181555Z 28005KT CAVOK 24/16 Q1016 RMK SKC VIS MIN 9999
LIPI - Rivolto (it-Afb), Italy
Oddaljenost od postaje: ZJZ 57km
Podatki zajeti: 16/08/2019 01:55
Ni posodobljen
Nevihta, Delno oblačno
Nevihta, Delno oblačno
 Veter iz smeri spremenljiv
Veter: spremenljiv 0 km/h
Temperatura: 18°C
Temp. rosišča: 15°C
Vlažnost: 83%
Tlak: 1015 hPa
Stanje: Thunderstorm Rain
Oblačnost: Delno oblačno
Vidljivost: 10 km
Podrobnosti o oblakih: Rahlo oblačno 1219 m
Delno oblačno 2134 m
2019/08/15 23:55 LIPI 152355Z /////KT 9999 TSRA FEW040CB SCT070 18/15 Q1015 RMK OVC BKN120 VIS MIN 7000W WIND THR06 /////KT WIND THR24 01008KT WHT
 
LJLJ - Ljubljana/Brnik, Slovenia
Oddaljenost od postaje: VSV 59km
Podatki zajeti: 18/08/2019 18:00
Rahlo oblačno
Rahlo oblačno
 Veter iz smeri Z
Veter: Z 17 km/h
Temperatura: 28°C
Toplotni indeks: 28°C
Temp. rosišča: 16°C
Vlažnost: 48%
Tlak: 1015 hPa
Oblačnost: Rahlo oblačno
Vidljivost: 10 km
Podrobnosti o oblakih: Rahlo oblačno 1829 m
2019/08/18 16:00 LJLJ 181600Z 26009KT 220V280 9999 FEW060 28/16 Q1015 NOSIG
LJPZ - Portoroz, Slovenia
Oddaljenost od postaje: J 68km
Podatki zajeti: 18/08/2019 18:00
Jasno
Jasno
 Veter iz smeri SZ
Veter: SZ 11 km/h
Temperatura: 28°C
Toplotni indeks: 29°C
Temp. rosišča: 18°C
Vlažnost: 55%
Tlak: 1015 hPa
Stanje: Jasno
Vidljivost: večja od 10 km
2019/08/18 16:00 LJPZ 181600Z 32006KT CAVOK 28/18 Q1015
 
LOWK - Klagenfurt(Civ/M, Austria
Oddaljenost od postaje: SV 78km
Podatki zajeti: 18/08/2019 17:50
Rahlo oblačno
Rahlo oblačno
 Veter iz smeri JJZ
Veter: JJZ 11 km/h
Temperatura: 30°C
Toplotni indeks: 30°C
Temp. rosišča: 16°C
Vlažnost: 43%
Tlak: 1014 hPa
Oblačnost: Rahlo oblačno
Vidljivost: 10 km
Podrobnosti o oblakih: Rahlo oblačno 1829 m
2019/08/18 15:50 LOWK 181550Z 20006KT 170V230 9999 FEW060 30/16 Q1014 NOSIG
LIYW - Aviano (usaf), Italy
Oddaljenost od postaje: Z 86km
Podatki zajeti: 20/10/2015 15:58
Ni posodobljen
Jasno
Jasno
 Veter iz smeri JJZ
Veter: JJZ 6 km/h
Temperatura: 17°C
Temp. rosišča: 3°C
Vlažnost: 39%
Tlak: 1016.3 hPa
Oblačnost: Jasno
Vidljivost: 10 km
2015/10/20 13:58 LIYW 201358Z AUTO 21003KT 9999 CLR 17/03 A3001 RMK AO2 SLP167 T01660029
 
LIPA - Aviano (it/Us-Af, Italy
Oddaljenost od postaje: Z 89km
Podatki zajeti: 17/08/2019 21:55
Ni posodobljen
Rahlo oblačno
Rahlo oblačno
 Veter iz smeri SV
Veter: SV 2 km/h
Temperatura: 22°C
Temp. rosišča: 19°C
Vlažnost: 83%
Tlak: 1016 hPa
Oblačnost: Rahlo oblačno
Vidljivost: 10 km
Podrobnosti o oblakih: Rahlo oblačno 3048 m
2019/08/17 19:55 LIPA 171955Z 05001KT 9999 FEW100 22/19 Q1016 RMK FEW VIS MIN 9999 WIND THR05 /////KT WIND THR23 /////KT A3000 BLU
LDRI - Rijeka/Omisalj, Croatia
Oddaljenost od postaje: JV 115km
Podatki zajeti: 18/08/2019 18:00
Jasno
Jasno
 Veter iz smeri ZSZ
Veter: ZSZ 7 km/h
Temperatura: 28°C
Toplotni indeks: 28°C
Temp. rosišča: 16°C
Vlažnost: 48%
Tlak: 1015 hPa
Stanje: Jasno
Vidljivost: večja od 10 km
2019/08/18 16:00 LDRI 181600Z 30004KT 240V360 CAVOK 28/16 Q1015
 
LIPZ - Venezia/Tessera, Italy
Oddaljenost od postaje: ZJZ 127km
Podatki zajeti: 18/08/2019 17:50
Jasno
Jasno
 Veter iz smeri JJV
Veter: JJV 11 km/h
Temperatura: 27°C
Toplotni indeks: 29°C
Temp. rosišča: 20°C
Vlažnost: 66%
Tlak: 1015 hPa
Stanje: Jasno
Vidljivost: večja od 10 km
2019/08/18 15:50 LIPZ 181550Z 15006KT 120V190 CAVOK 27/20 Q1015 NOSIG
LDPL - Pula, Croatia
Oddaljenost od postaje: J 133km
Podatki zajeti: 18/08/2019 18:00
Jasno
Jasno
 Veter iz smeri JV
Veter: JV 9 km/h
Temperatura: 27°C
Temp. rosišča: 12°C
Vlažnost: 39%
Tlak: 1015 hPa
Stanje: Jasno
Vidljivost: večja od 10 km
2019/08/18 16:00 LDPL 181600Z 13005KT 090V180 CAVOK 27/12 Q1015 NOSIG
 
LIPS - Istrana (it-Afb), Italy
Oddaljenost od postaje: ZJZ 136km
Podatki zajeti: 18/08/2019 17:55
Pretežno oblačno
Pretežno oblačno
 Veter iz smeri spremenljiv
Veter: spremenljiv 0 km/h
Temperatura: 29°C
Toplotni indeks: 32°C
Temp. rosišča: 22°C
Vlažnost: 66%
Tlak: 1015 hPa
Oblačnost: Pretežno oblačno
Vidljivost: 10 km
Podrobnosti o oblakih: Pretežno oblačno 762 m
2019/08/18 15:55 LIPS 181555Z /////KT 9999 BKN025 29/22 Q1015 RMK BKN VIS MIN 9999 WIND THR26 11004KT WIND THR08 17005KT BLU
LIVD - Dobbiaco, Italy
Oddaljenost od postaje: ZSZ 137km
Podatki zajeti: 18/08/2019 17:55
Rahlo oblačno
Rahlo oblačno
 Veter iz smeri spremenljiv
Veter: spremenljiv 0 km/h
Temperatura: 25°C
Temp. rosišča: 12°C
Vlažnost: 44%
Tlak: 1019 hPa
Oblačnost: Rahlo oblačno
Vidljivost: 10 km
Podrobnosti o oblakih: Rahlo oblačno 914 m
2019/08/18 15:55 LIVD 181555Z /////KT 9999 FEW030 25/12 Q1019 RMK FEW VIS MIN 9999
 
LJCE - Cerklje, Slovenia
Oddaljenost od postaje: V 139km
Podatki zajeti: 18/08/2019 18:00
Jasno
Jasno
 Veter iz smeri ZJZ
Veter: ZJZ 11 km/h
Temperatura: 30°C
Toplotni indeks: 31°C
Temp. rosišča: 19°C
Vlažnost: 52%
Tlak: 1014 hPa
Oblačnost: Jasno
Vidljivost: 10 km
2019/08/18 16:00 LJCE 181600Z AUTO 25006KT 9999 NCD 30/19 Q1014
LOXZ - Zeltweg (mil), Austria
Oddaljenost od postaje: SSV 147km
Podatki zajeti: 18/08/2019 17:50
Rahlo oblačno
Rahlo oblačno
 Veter iz smeri JJZ
Veter: JJZ 20 km/h
Temperatura: 30°C
Temp. rosišča: 8°C
Vlažnost: 25%
Tlak: 1015 hPa
Oblačnost: Rahlo oblačno
Podrobnosti o oblakih: Rahlo oblačno 2134 m
2019/08/18 15:50 LOXZ 181550Z 20011KT 50KM FEW070CU 30/08 Q1015 NOSIG